createdAt,value
2018-06-19T00:00:15.734Z,91.60
2018-06-19T00:02:44.301Z,91.00
2018-06-19T00:05:12.810Z,91.10
2018-06-19T00:07:41.358Z,91.00
2018-06-19T00:10:09.850Z,91.10
2018-06-19T00:12:38.350Z,90.90
2018-06-19T00:15:06.895Z,90.50
2018-06-19T00:17:36.318Z,90.70
2018-06-19T00:20:04.979Z,90.70
2018-06-19T00:25:01.683Z,90.60
2018-06-19T00:27:30.170Z,90.60
2018-06-19T00:29:58.694Z,90.60
2018-06-19T00:32:27.190Z,90.50
2018-06-19T00:34:55.681Z,90.60
2018-06-19T00:37:24.175Z,90.50
2018-06-19T00:39:53.189Z,90.60
2018-06-19T00:42:21.718Z,90.50
2018-06-19T00:44:50.236Z,90.50
2018-06-19T00:47:18.742Z,90.40
2018-06-19T00:49:47.218Z,90.30
2018-06-19T00:52:15.766Z,90.20
2018-06-19T00:54:44.256Z,90.20
2018-06-19T00:57:12.723Z,90.20
2018-06-19T00:59:41.246Z,90.30
2018-06-19T01:02:09.709Z,90.00
2018-06-19T01:04:38.218Z,90.20
2018-06-19T01:07:06.867Z,90.50
2018-06-19T01:09:35.352Z,90.00
2018-06-19T01:12:03.861Z,90.10
2018-06-19T01:14:32.382Z,90.00
2018-06-19T01:17:00.903Z,90.00
2018-06-19T01:19:29.390Z,90.40
2018-06-19T01:21:57.878Z,89.80
2018-06-19T01:24:26.376Z,89.70
2018-06-19T01:26:54.894Z,90.10
2018-06-19T01:29:23.426Z,90.10
2018-06-19T01:31:51.895Z,90.50
2018-06-19T01:34:20.370Z,90.20
2018-06-19T01:36:48.890Z,90.30
2018-06-19T01:39:17.338Z,90.40
2018-06-19T01:41:45.828Z,90.40
2018-06-19T01:44:14.358Z,90.50
2018-06-19T01:46:42.831Z,90.60
2018-06-19T01:49:11.314Z,90.60
2018-06-19T01:51:39.888Z,90.80
2018-06-19T01:54:08.378Z,90.70
2018-06-19T01:56:36.946Z,90.70
2018-06-19T01:59:05.587Z,90.90
2018-06-19T02:01:34.068Z,90.80
2018-06-19T02:04:02.623Z,91.10
2018-06-19T02:06:31.103Z,91.00
2018-06-19T02:08:59.594Z,91.10
2018-06-19T02:11:28.110Z,91.30
2018-06-19T02:13:56.713Z,91.50
2018-06-19T02:16:25.222Z,91.40
2018-06-19T02:18:53.954Z,91.40
2018-06-19T02:23:50.654Z,91.50
2018-06-19T02:26:19.171Z,91.70
2018-06-19T02:28:47.645Z,91.90
2018-06-19T02:31:16.206Z,91.80
2018-06-19T02:33:44.698Z,91.90
2018-06-19T02:36:13.190Z,91.80
2018-06-19T02:38:41.723Z,91.80
2018-06-19T02:41:10.174Z,91.90
2018-06-19T02:43:38.666Z,91.40
2018-06-19T02:46:07.182Z,91.90
2018-06-19T02:48:35.694Z,91.50
2018-06-19T02:51:04.224Z,91.50
2018-06-19T02:53:32.682Z,91.60
2018-06-19T02:56:01.215Z,91.40
2018-06-19T02:58:29.714Z,91.40
2018-06-19T03:00:58.201Z,90.80
2018-06-19T03:03:26.747Z,90.30
2018-06-19T03:05:55.250Z,90.70
2018-06-19T03:08:23.759Z,91.10
2018-06-19T03:10:52.230Z,91.60
2018-06-19T03:13:20.742Z,91.40
2018-06-19T03:15:49.237Z,91.20
2018-06-19T03:18:17.817Z,91.40
2018-06-19T03:20:46.303Z,91.50
2018-06-19T03:23:14.793Z,91.70
2018-06-19T03:25:43.290Z,91.50
2018-06-19T03:28:11.770Z,91.60
2018-06-19T03:30:40.264Z,91.30
2018-06-19T03:33:08.875Z,91.50
2018-06-19T03:35:37.353Z,92.00
2018-06-19T03:40:34.098Z,92.00
2018-06-19T03:43:02.585Z,92.60
2018-06-19T03:45:31.287Z,91.60
2018-06-19T03:48:00.264Z,92.10
2018-06-19T03:50:28.774Z,92.40
2018-06-19T03:52:57.316Z,92.10
2018-06-19T03:55:25.881Z,92.10
2018-06-19T03:57:54.360Z,91.70
2018-06-19T04:00:22.842Z,92.10
2018-06-19T04:02:51.391Z,92.20
2018-06-19T04:05:19.935Z,91.90
2018-06-19T04:07:48.443Z,91.70
2018-06-19T04:10:16.954Z,91.90
2018-06-19T04:12:45.442Z,91.80
2018-06-19T04:15:13.942Z,91.90
2018-06-19T04:17:42.474Z,91.80
2018-06-19T04:20:10.984Z,92.10
2018-06-19T04:22:39.518Z,92.20
2018-06-19T04:25:08.059Z,92.20
2018-06-19T04:27:36.535Z,92.50
2018-06-19T04:30:05.696Z,92.00
2018-06-19T04:32:34.538Z,92.00
2018-06-19T04:35:03.066Z,92.30
2018-06-19T04:37:31.608Z,92.50
2018-06-19T04:40:00.140Z,92.50
2018-06-19T04:42:28.679Z,92.30
2018-06-19T04:44:57.162Z,91.90
2018-06-19T04:47:25.727Z,92.60
2018-06-19T04:49:54.303Z,92.60
2018-06-19T04:52:22.796Z,92.20
2018-06-19T04:54:51.286Z,91.80
2018-06-19T04:57:19.822Z,92.20
2018-06-19T04:59:48.357Z,92.30
2018-06-19T05:02:16.865Z,92.40
2018-06-19T05:04:45.389Z,92.00
2018-06-19T05:07:13.959Z,92.00
2018-06-19T05:09:42.491Z,92.10
2018-06-19T05:12:10.962Z,92.30
2018-06-19T05:14:39.461Z,92.20
2018-06-19T05:17:08.006Z,92.80
2018-06-19T05:19:36.527Z,92.80
2018-06-19T05:22:05.025Z,92.80
2018-06-19T05:24:33.587Z,92.70
2018-06-19T05:27:02.179Z,92.80
2018-06-19T05:29:30.749Z,92.90
2018-06-19T05:31:59.278Z,92.90
2018-06-19T05:34:27.762Z,92.50
2018-06-19T05:36:56.297Z,92.90
2018-06-19T05:39:24.761Z,92.70
2018-06-19T05:41:53.259Z,92.40
2018-06-19T05:44:21.739Z,92.50
2018-06-19T05:46:50.303Z,92.40
2018-06-19T05:49:18.891Z,92.20
2018-06-19T05:51:48.427Z,92.00
2018-06-19T05:54:16.934Z,91.90
2018-06-19T05:56:45.479Z,91.70
2018-06-19T05:59:14.056Z,91.30
2018-06-19T06:01:42.564Z,91.20
2018-06-19T06:04:11.049Z,90.30
2018-06-19T06:06:39.627Z,90.30
2018-06-19T06:09:09.292Z,90.30
2018-06-19T06:11:37.802Z,90.50
2018-06-19T06:14:06.386Z,90.80
2018-06-19T06:16:34.969Z,90.70
2018-06-19T06:19:03.439Z,90.70
2018-06-19T06:21:31.969Z,90.30
2018-06-19T06:24:00.529Z,90.20
2018-06-19T06:26:29.262Z,90.50
2018-06-19T06:28:57.802Z,89.70
2018-06-19T06:31:26.316Z,89.40
2018-06-19T06:33:54.964Z,88.80
2018-06-19T06:36:23.490Z,87.10
2018-06-19T06:38:52.013Z,86.10
2018-06-19T06:41:20.706Z,85.70
2018-06-19T06:43:49.232Z,85.80
2018-06-19T06:46:17.837Z,86.30
2018-06-19T06:48:46.330Z,85.80
2018-06-19T06:51:14.883Z,85.70
2018-06-19T06:53:43.379Z,85.20
2018-06-19T06:56:11.911Z,83.90
2018-06-19T06:58:40.339Z,82.80
2018-06-19T07:01:08.974Z,83.60
2018-06-19T07:03:37.444Z,82.00
2018-06-19T07:06:05.981Z,82.40
2018-06-19T07:08:34.562Z,81.80
2018-06-19T07:11:03.076Z,80.50
2018-06-19T07:13:31.613Z,80.00
2018-06-19T07:16:00.115Z,80.70
2018-06-19T07:18:28.674Z,79.50
2018-06-19T07:20:57.313Z,77.00
2018-06-19T07:23:25.789Z,76.50
2018-06-19T07:25:54.432Z,74.70
2018-06-19T07:28:22.911Z,73.90
2018-06-19T07:30:51.441Z,73.80
2018-06-19T07:33:19.966Z,72.50
2018-06-19T07:35:48.529Z,70.60
2018-06-19T07:38:17.075Z,71.00
2018-06-19T07:40:45.672Z,71.50
2018-06-19T07:43:14.203Z,69.00
2018-06-19T07:45:42.978Z,68.70
2018-06-19T07:48:11.511Z,69.00
2018-06-19T07:50:40.384Z,67.30
2018-06-19T07:53:09.014Z,66.00
2018-06-19T07:55:37.527Z,62.90
2018-06-19T07:58:06.106Z,63.80
2018-06-19T08:00:35.451Z,60.80
2018-06-19T08:03:03.975Z,60.10
2018-06-19T08:05:32.513Z,61.20
2018-06-19T08:08:01.071Z,59.40
2018-06-19T08:10:29.605Z,59.60
2018-06-19T08:12:58.132Z,61.00
2018-06-19T08:15:26.690Z,60.60
2018-06-19T08:17:55.234Z,58.80
2018-06-19T08:20:23.840Z,57.00
2018-06-19T08:22:52.431Z,57.20
2018-06-19T08:25:21.009Z,56.90
2018-06-19T08:27:49.578Z,57.00
2018-06-19T08:30:19.148Z,55.60
2018-06-19T08:32:47.739Z,57.30
2018-06-19T08:35:16.693Z,55.60
2018-06-19T08:37:45.299Z,56.80
2018-06-19T08:40:13.841Z,54.10
2018-06-19T08:42:42.388Z,53.40
2018-06-19T08:45:10.985Z,53.10
2018-06-19T08:47:39.513Z,52.50
2018-06-19T08:50:08.004Z,53.90
2018-06-19T08:52:37.175Z,51.80
2018-06-19T08:55:05.888Z,50.30
2018-06-19T08:57:34.412Z,52.20
2018-06-19T09:00:03.145Z,51.50
2018-06-19T09:02:31.710Z,50.70
2018-06-19T09:05:00.671Z,52.30
2018-06-19T09:07:29.287Z,49.10
2018-06-19T09:09:57.831Z,48.90
2018-06-19T09:12:27.167Z,49.20
2018-06-19T09:14:55.707Z,51.60
2018-06-19T09:17:24.336Z,49.60
2018-06-19T09:19:52.887Z,50.50
2018-06-19T09:22:21.464Z,49.10
2018-06-19T09:24:50.249Z,49.70
2018-06-19T09:27:18.865Z,47.70
2018-06-19T11:14:22.901Z,46.80
2018-06-19T11:22:54.758Z,46.50
2018-06-19T11:31:21.237Z,48.20
2018-06-19T11:39:46.985Z,47.90
2018-06-19T11:42:36.255Z,46.40
2018-06-19T11:48:16.031Z,46.30
2018-06-19T11:51:02.121Z,46.10
2018-06-19T11:59:32.366Z,45.30
2018-06-19T12:10:46.364Z,45.20
2018-06-19T12:24:57.006Z,46.60
2018-06-19T12:36:12.118Z,45.80
2018-06-19T12:39:01.964Z,45.60
2018-06-19T12:44:40.637Z,46.70
2018-06-19T12:53:09.477Z,46.40
2018-06-19T13:04:25.500Z,47.50
2018-06-19T13:10:05.487Z,48.00
2018-06-19T13:21:17.116Z,46.70
2018-06-19T13:32:32.415Z,47.50
2018-06-19T13:41:01.925Z,45.80
2018-06-19T13:46:42.982Z,47.20
2018-06-19T13:49:35.665Z,46.30
2018-06-19T13:55:14.369Z,46.10
2018-06-19T13:58:01.303Z,47.60
2018-06-19T14:00:42.539Z,50.70
2018-06-19T14:03:34.045Z,46.10
2018-06-19T20:37:20.734Z,67.50
2018-06-19T20:39:49.234Z,67.70
2018-06-19T20:42:19.059Z,68.00
2018-06-19T20:44:47.668Z,68.50
2018-06-19T20:47:16.146Z,68.40
2018-06-19T20:49:44.645Z,68.60
2018-06-19T20:52:13.275Z,68.60
2018-06-19T20:54:42.011Z,68.70
2018-06-19T20:57:10.518Z,69.00
2018-06-19T20:59:39.035Z,69.20
2018-06-19T21:02:07.761Z,69.40
2018-06-19T21:04:36.331Z,69.90
2018-06-19T21:07:04.914Z,69.90
2018-06-19T21:09:33.594Z,70.10
2018-06-19T21:12:02.079Z,70.60
2018-06-19T21:14:30.538Z,70.80
2018-06-19T21:16:59.944Z,71.30
2018-06-19T21:19:28.582Z,71.40
2018-06-19T21:21:57.352Z,71.40
2018-06-19T21:24:26.224Z,71.70
2018-06-19T21:26:54.730Z,71.40
2018-06-19T21:29:23.513Z,71.80
2018-06-19T21:31:51.998Z,71.80
2018-06-19T21:34:20.556Z,72.00
2018-06-19T21:36:49.059Z,72.40
2018-06-19T21:39:17.559Z,72.50
2018-06-19T21:41:46.107Z,72.80
2018-06-19T21:44:16.545Z,72.80
2018-06-19T21:46:46.537Z,73.10
2018-06-19T21:49:15.105Z,73.20
2018-06-19T21:51:43.607Z,73.50
2018-06-19T21:54:12.117Z,73.60
2018-06-19T21:56:40.579Z,74.00
2018-06-19T21:59:09.075Z,74.30
2018-06-19T22:01:37.637Z,74.80
2018-06-19T22:04:06.163Z,75.00
2018-06-19T22:06:34.743Z,76.00
2018-06-19T22:09:04.107Z,75.90
2018-06-19T22:11:32.889Z,76.40
2018-06-19T22:14:01.572Z,75.80
2018-06-19T22:16:30.412Z,75.90
2018-06-19T22:18:59.055Z,76.30
2018-06-19T22:21:27.667Z,76.60
2018-06-19T22:23:56.150Z,76.80
2018-06-19T22:26:25.648Z,77.20
2018-06-19T22:28:58.340Z,77.50
2018-06-19T22:31:27.184Z,77.50
2018-06-19T22:33:56.730Z,78.60
2018-06-19T22:36:29.278Z,79.00
2018-06-19T22:38:59.667Z,79.30
2018-06-19T22:41:30.928Z,79.40
2018-06-19T22:44:03.661Z,79.30
2018-06-19T22:46:32.423Z,79.20
2018-06-19T22:49:01.190Z,79.50
2018-06-19T22:51:29.739Z,79.90
2018-06-19T22:53:58.208Z,80.50
2018-06-19T22:56:26.716Z,80.60
2018-06-19T22:58:55.316Z,81.20
2018-06-19T23:01:24.137Z,81.00
2018-06-19T23:03:52.808Z,81.00
2018-06-19T23:06:21.433Z,81.00
2018-06-19T23:08:49.932Z,81.40
2018-06-19T23:11:18.423Z,81.60
2018-06-19T23:13:46.997Z,81.70
2018-06-19T23:16:15.499Z,82.50
2018-06-19T23:18:44.080Z,82.50
2018-06-19T23:21:12.574Z,83.00
2018-06-19T23:23:41.061Z,82.80
2018-06-19T23:26:09.614Z,83.60
2018-06-19T23:28:38.108Z,84.10
2018-06-19T23:31:06.707Z,84.50
2018-06-19T23:33:35.588Z,85.00
2018-06-19T23:36:04.052Z,85.30
2018-06-19T23:38:32.585Z,85.80
2018-06-19T23:41:01.161Z,85.10
2018-06-19T23:43:29.632Z,86.20
2018-06-19T23:45:58.244Z,86.30
2018-06-19T23:48:26.713Z,86.20
2018-06-19T23:50:55.201Z,86.90
2018-06-19T23:53:23.793Z,86.60
2018-06-19T23:55:52.898Z,86.70
2018-06-19T23:58:21.496Z,86.90
